Time;durP1;ratioP1;P1;durP2;ratioP2;P2;SDS_P1;SDS_P2;PMS_P1;PMS_P2;Temp;Humidity;BMP_temperature;BMP_pressure;BME280_temperature;BME280_humidity;BME280_pressure;Samples;Min_cycle;Max_cycle;Signal;HPM_P1;HPM_P2
2022/02/03 08:49:56;;;;;;;3.90;2.50;;;;;;;;;;6326251;22;20042;-84
2022/02/03 09:39:20;;;;;;;2.38;2.17;;;;;;;;;;6381666;22;20013;-82
2022/02/03 10:00:46;;;;;;;3.95;2.60;;;;;;;;;;6308912;22;20014;-83
2022/02/03 10:03:19;;;;;;;4.00;2.53;;;;;;;;;;6305323;22;20109;-84
2022/02/03 10:06:11;;;;;;;5.03;2.60;;;;;;;;;;6305663;22;20015;-84
2022/02/03 10:08:38;;;;;;;2.90;2.65;;;;;;;;;;6305582;22;20003;-83
2022/02/03 10:11:20;;;;;;;3.00;2.67;;;;;;;;;;6305585;22;20011;-85
2022/02/03 10:13:49;;;;;;;3.75;2.40;;;;;;;;;;6279749;22;20442;-86
2022/02/03 10:16:17;;;;;;;4.43;2.22;;;;;;;;;;6279486;22;20341;-85
2022/02/03 10:18:44;;;;;;;2.88;2.50;;;;;;;;;;6279535;22;20088;-84
2022/02/03 10:21:17;;;;;;;5.72;2.55;;;;;;;;;;6305478;22;20007;-84
2022/02/03 10:23:53;;;;;;;4.50;2.55;;;;;;;;;;6341950;22;20313;-83
2022/02/03 10:26:19;;;;;;;3.53;2.80;;;;;;;;;;6370756;22;20329;-84
2022/02/03 10:28:54;;;;;;;3.28;2.40;;;;;;;;;;6370818;22;20002;-85
2022/02/03 10:31:24;;;;;;;2.97;2.63;;;;;;;;;;6370754;22;20353;-83
2022/02/03 10:33:59;;;;;;;4.68;2.97;;;;;;;;;;6372791;22;20085;-83
2022/02/03 10:37:20;;;;;;;8.20;3.95;;;;;;;;;;6372673;22;20010;-83
2022/02/03 10:45:07;;;;;;;4.00;3.60;;;;;;;;;;6374076;22;20002;-83
2022/02/03 10:50:22;;;;;;;3.60;3.28;;;;;;;;;;6383757;22;20003;-84
2022/02/03 10:56:00;;;;;;;4.00;3.60;;;;;;;;;;6372649;22;20025;-85
2022/02/03 11:08:52;;;;;;;3.25;2.95;;;;;;;;;;6375209;22;20077;-85
2022/02/03 11:11:23;;;;;;;3.42;3.13;;;;;;;;;;6372493;22;19999;-83
2022/02/03 11:13:50;;;;;;;2.80;2.58;;;;;;;;;;6372257;22;20002;-84
2022/02/03 11:16:17;;;;;;;3.17;2.88;;;;;;;;;;6372044;22;19998;-83
2022/02/03 11:18:45;;;;;;;3.17;2.88;;;;;;;;;;6372379;22;20006;-84
2022/02/03 11:21:12;;;;;;;2.78;2.58;;;;;;;;;;6345188;22;20006;-83
2022/02/03 11:23:43;;;;;;;3.85;2.83;;;;;;;;;;6372526;22;19999;-84
2022/02/03 11:29:45;;;;;;;4.88;4.07;;;;;;;;;;6277804;22;20299;-84
2022/02/03 11:45:32;;;;;;;14.27;9.13;;;;;;;;;;6351183;22;20115;-84
2022/02/03 11:51:09;;;;;;;8.38;6.93;;;;;;;;;;6340843;22;20196;-86
2022/02/03 12:16:11;;;;;;;7.97;5.30;;;;;;;;;;6347196;22;20311;-84
2022/02/03 12:18:58;;;;;;;6.18;4.40;;;;;;;;;;6312390;22;20007;-84
2022/02/03 12:21:34;;;;;;;6.65;5.63;;;;;;;;;;6339958;22;20077;-84
2022/02/03 12:24:20;;;;;;;6.57;5.10;;;;;;;;;;6312326;22;20003;-84
2022/02/03 12:26:57;;;;;;;8.30;5.00;;;;;;;;;;6339906;22;20079;-84
2022/02/03 12:29:32;;;;;;;6.72;4.63;;;;;;;;;;6339743;22;20002;-84
2022/02/03 12:40:04;;;;;;;13.30;8.68;;;;;;;;;;6342306;22;20363;-83
2022/02/03 12:42:47;;;;;;;14.30;8.82;;;;;;;;;;6371399;22;20413;-87
2022/02/03 12:45:33;;;;;;;11.35;8.15;;;;;;;;;;6371544;22;20343;-86
2022/02/03 12:48:00;;;;;;;13.18;9.07;;;;;;;;;;6372009;22;20013;-86
2022/02/03 17:19:45;;;;;;;17.95;9.68;;;;;;;;;;6118187;23;1311727;-82
2022/02/03 17:22:12;;;;;;;13.02;9.82;;;;;;;;;;6156270;23;20014;-82
2022/02/03 17:24:42;;;;;;;15.48;10.57;;;;;;;;;;6156276;23;20341;-82
2022/02/03 18:30:15;;;;;;;11.63;7.57;;;;;;;;;;6171269;23;20040;-88
2022/02/03 18:33:07;;;;;;;16.45;8.90;;;;;;;;;;6162010;23;20013;-89
2022/02/03 18:49:51;;;;;;;18.55;10.52;;;;;;;;;;6170900;23;20017;-90
2022/02/03 18:52:06;;;;;;;16.08;9.80;;;;;;;;;;6160355;23;20001;-86
2022/02/03 19:27:28;;;;;;;16.20;10.63;;;;;;;;;;6095025;23;20017;-86
2022/02/03 20:21:39;;;;;;;12.48;9.20;;;;;;;;;;6185883;23;20063;-84
2022/02/03 20:24:05;;;;;;;15.10;10.68;;;;;;;;;;6186977;23;20004;-85
2022/02/03 20:26:33;;;;;;;21.30;13.82;;;;;;;;;;6186632;23;20008;-86
2022/02/03 20:28:59;;;;;;;23.08;13.88;;;;;;;;;;6186647;23;20020;-86
2022/02/03 20:31:24;;;;;;;16.17;10.48;;;;;;;;;;6185036;23;20009;-86
2022/02/03 20:33:50;;;;;;;20.58;11.05;;;;;;;;;;6186581;23;20001;-85
2022/02/03 20:36:16;;;;;;;16.63;12.05;;;;;;;;;;6184777;23;20008;-85
2022/02/03 20:38:41;;;;;;;26.83;15.93;;;;;;;;;;6184662;23;20013;-85
2022/02/03 20:41:07;;;;;;;32.70;18.13;;;;;;;;;;6184804;23;20032;-86
2022/02/03 20:43:32;;;;;;;31.90;15.85;;;;;;;;;;6186702;23;20052;-86
2022/02/03 20:45:59;;;;;;;23.02;13.77;;;;;;;;;;6186464;23;20009;-86
2022/02/03 20:48:25;;;;;;;14.18;9.45;;;;;;;;;;6186403;23;20433;-86
2022/02/03 20:50:51;;;;;;;12.52;8.80;;;;;;;;;;6186467;23;20008;-86
2022/02/03 20:53:17;;;;;;;16.42;10.90;;;;;;;;;;6186437;23;20001;-86
2022/02/03 20:55:44;;;;;;;18.23;11.65;;;;;;;;;;6184789;23;20055;-87
2022/02/03 20:58:13;;;;;;;21.23;13.32;;;;;;;;;;6186250;23;20005;-84
2022/02/03 21:00:44;;;;;;;20.95;13.00;;;;;;;;;;6186524;23;20029;-85
2022/02/03 21:03:20;;;;;;;19.75;12.73;;;;;;;;;;6186293;23;20005;-84
2022/02/03 21:05:45;;;;;;;19.55;11.38;;;;;;;;;;6186032;23;20484;-84
2022/02/03 21:08:18;;;;;;;19.30;12.18;;;;;;;;;;6186368;23;19997;-84
2022/02/03 21:10:43;;;;;;;18.60;12.15;;;;;;;;;;6186312;23;20005;-87
2022/02/03 21:13:08;;;;;;;18.33;12.45;;;;;;;;;;6186141;23;20020;-85
2022/02/03 21:15:38;;;;;;;15.70;10.60;;;;;;;;;;6186337;23;20023;-85
2022/02/03 21:18:09;;;;;;;19.30;11.75;;;;;;;;;;6186092;23;20059;-86
2022/02/03 21:20:36;;;;;;;18.77;10.75;;;;;;;;;;6184829;23;20024;-85
2022/02/03 21:23:04;;;;;;;17.88;10.65;;;;;;;;;;6185897;23;20005;-86
2022/02/03 21:25:42;;;;;;;16.15;10.40;;;;;;;;;;6186106;23;20421;-85
2022/02/03 21:28:17;;;;;;;23.30;14.57;;;;;;;;;;6186037;23;20325;-85
2022/02/03 21:30:43;;;;;;;29.83;16.17;;;;;;;;;;6186194;23;20009;-85
2022/02/03 21:33:13;;;;;;;18.58;11.20;;;;;;;;;;6185931;23;20001;-85
2022/02/03 21:35:40;;;;;;;19.50;12.05;;;;;;;;;;6185910;23;20005;-86
2022/02/03 21:38:06;;;;;;;20.10;11.13;;;;;;;;;;6184187;23;20043;-86
2022/02/03 21:40:32;;;;;;;18.38;11.50;;;;;;;;;;6185849;23;20004;-84
2022/02/03 21:43:01;;;;;;;17.17;11.48;;;;;;;;;;6187226;23;20001;-84
2022/02/03 21:45:27;;;;;;;17.60;11.85;;;;;;;;;;6185932;23;20332;-84
2022/02/03 21:47:53;;;;;;;17.77;11.30;;;;;;;;;;6187029;23;20001;-85
2022/02/03 21:50:19;;;;;;;18.55;11.20;;;;;;;;;;6188124;23;20319;-85
2022/02/03 21:52:51;;;;;;;20.27;13.15;;;;;;;;;;6187808;23;20005;-86
2022/02/03 21:55:18;;;;;;;17.10;11.70;;;;;;;;;;6187826;23;20401;-85
2022/02/03 21:57:47;;;;;;;18.95;11.75;;;;;;;;;;6187849;23;20001;-86
2022/02/03 22:00:15;;;;;;;17.13;10.73;;;;;;;;;;6188825;23;20001;-85
2022/02/03 22:02:41;;;;;;;18.73;11.68;;;;;;;;;;6186624;23;20056;-86
2022/02/03 22:05:08;;;;;;;22.40;13.52;;;;;;;;;;6188168;23;20001;-86
2022/02/03 22:07:34;;;;;;;20.10;13.55;;;;;;;;;;6188398;23;20033;-85
2022/02/03 22:10:00;;;;;;;20.85;14.15;;;;;;;;;;6188231;23;20024;-85
2022/02/03 22:12:25;;;;;;;18.75;12.35;;;;;;;;;;6188331;23;19997;-85
2022/02/03 22:14:50;;;;;;;20.08;13.25;;;;;;;;;;6188494;23;20005;-86
2022/02/03 22:17:16;;;;;;;16.77;11.45;;;;;;;;;;6187613;23;20036;-86
2022/02/03 22:19:48;;;;;;;18.55;10.98;;;;;;;;;;6187839;23;20001;-85
2022/02/03 22:43:51;;;;;;;19.55;11.75;;;;;;;;;;6197554;23;20040;-86
2022/02/03 22:49:10;;;;;;;76.18;54.33;;;;;;;;;;6164781;23;20305;-85
2022/02/03 22:51:37;;;;;;;79.20;50.63;;;;;;;;;;6185992;23;20028;-86
2022/02/03 22:54:06;;;;;;;20.90;13.88;;;;;;;;;;6188137;23;20001;-85
2022/02/03 22:56:33;;;;;;;21.75;12.18;;;;;;;;;;6187629;23;20409;-86
2022/02/03 23:01:32;;;;;;;24.10;15.85;;;;;;;;;;6191255;23;20009;-85
2022/02/03 23:03:57;;;;;;;23.00;14.07;;;;;;;;;;6187483;23;20005;-85
2022/02/03 23:06:22;;;;;;;20.02;12.40;;;;;;;;;;6187360;23;20328;-84
2022/02/03 23:23:42;;;;;;;22.20;14.55;;;;;;;;;;6197747;23;20084;-85
2022/02/03 23:26:09;;;;;;;22.30;14.25;;;;;;;;;;6187214;23;20040;-85
2022/02/03 23:28:35;;;;;;;21.35;14.02;;;;;;;;;;6185831;23;20336;-85
2022/02/03 23:31:01;;;;;;;23.90;14.32;;;;;;;;;;6185581;23;20005;-86
2022/02/03 23:33:29;;;;;;;22.27;14.77;;;;;;;;;;6187268;23;20433;-85
2022/02/03 23:35:55;;;;;;;19.95;14.40;;;;;;;;;;6187147;23;20013;-85
2022/02/03 23:41:55;;;;;;;25.30;14.73;;;;;;;;;;6189454;23;20043;-86
